sensor_id;sensor_type;location;lat;lon;timestamp;pressure;altitude;pressure_sealevel;temperature;humidity
84316;BME280;74496;52.236;5.164;2024-03-22T00:00:39;102013.44;;;12.80;77.26
84316;BME280;74496;52.236;5.164;2024-03-22T00:03:05;102020.16;;;12.84;77.23
84316;BME280;74496;52.236;5.164;2024-03-22T00:05:31;102006.53;;;12.89;76.77
84316;BME280;74496;52.236;5.164;2024-03-22T00:07:57;101999.56;;;12.88;76.89
84316;BME280;74496;52.236;5.164;2024-03-22T00:10:24;101993.19;;;12.90;76.82
84316;BME280;74496;52.236;5.164;2024-03-22T00:12:49;101985.19;;;13.02;76.28
84316;BME280;74496;52.236;5.164;2024-03-22T00:15:17;101985.44;;;12.99;76.62
84316;BME280;74496;52.236;5.164;2024-03-22T00:17:44;101979.19;;;13.00;76.77
84316;BME280;74496;52.236;5.164;2024-03-22T00:20:11;101971.69;;;13.05;76.33
84316;BME280;74496;52.236;5.164;2024-03-22T00:22:37;101971.84;;;13.03;76.50
84316;BME280;74496;52.236;5.164;2024-03-22T00:25:04;101973.50;;;13.04;76.07
84316;BME280;74496;52.236;5.164;2024-03-22T00:27:31;101967.16;;;12.96;76.93
84316;BME280;74496;52.236;5.164;2024-03-22T00:29:58;101957.16;;;12.99;76.84
84316;BME280;74496;52.236;5.164;2024-03-22T00:32:25;101953.88;;;13.07;76.38
84316;BME280;74496;52.236;5.164;2024-03-22T00:34:52;101944.63;;;13.01;77.19
84316;BME280;74496;52.236;5.164;2024-03-22T00:37:18;101934.63;;;13.05;76.76
84316;BME280;74496;52.236;5.164;2024-03-22T00:39:44;101922.84;;;12.98;77.26
84316;BME280;74496;52.236;5.164;2024-03-22T00:42:10;101926.94;;;13.02;77.08
84316;BME280;74496;52.236;5.164;2024-03-22T00:44:37;101912.13;;;12.99;76.90
84316;BME280;74496;52.236;5.164;2024-03-22T00:47:02;101912.75;;;12.91;77.23
84316;BME280;74496;52.236;5.164;2024-03-22T00:49:30;101918.53;;;12.97;76.89
84316;BME280;74496;52.236;5.164;2024-03-22T00:51:56;101909.63;;;12.98;76.69
84316;BME280;74496;52.236;5.164;2024-03-22T00:54:23;101922.03;;;12.86;77.25
84316;BME280;74496;52.236;5.164;2024-03-22T00:56:48;101925.75;;;12.95;76.34
84316;BME280;74496;52.236;5.164;2024-03-22T00:59:17;101918.34;;;13.09;76.29
84316;BME280;74496;52.236;5.164;2024-03-22T01:01:43;101916.34;;;13.02;76.28
84316;BME280;74496;52.236;5.164;2024-03-22T01:04:10;101919.88;;;12.91;76.65
84316;BME280;74496;52.236;5.164;2024-03-22T01:06:37;101915.03;;;12.96;76.11
84316;BME280;74496;52.236;5.164;2024-03-22T01:09:05;101921.44;;;12.94;76.31
84316;BME280;74496;52.236;5.164;2024-03-22T01:11:30;101921.53;;;12.92;76.29
84316;BME280;74496;52.236;5.164;2024-03-22T01:13:57;101916.63;;;12.87;76.57
84316;BME280;74496;52.236;5.164;2024-03-22T01:16:23;101920.72;;;12.91;75.95
84316;BME280;74496;52.236;5.164;2024-03-22T01:18:49;101918.31;;;12.88;76.10
84316;BME280;74496;52.236;5.164;2024-03-22T01:21:15;101917.25;;;12.80;76.52
84316;BME280;74496;52.236;5.164;2024-03-22T01:23:43;101913.75;;;12.90;76.07
84316;BME280;74496;52.236;5.164;2024-03-22T01:26:09;101909.53;;;12.88;76.21
84316;BME280;74496;52.236;5.164;2024-03-22T01:28:35;101902.31;;;12.90;76.23
84316;BME280;74496;52.236;5.164;2024-03-22T01:31:01;101896.38;;;12.98;75.89
84316;BME280;74496;52.236;5.164;2024-03-22T01:33:27;101896.63;;;12.95;75.63
84316;BME280;74496;52.236;5.164;2024-03-22T01:35:53;101898.28;;;12.96;75.00
84316;BME280;74496;52.236;5.164;2024-03-22T01:38:20;101893.00;;;12.96;75.03
84316;BME280;74496;52.236;5.164;2024-03-22T01:40:47;101901.19;;;12.93;75.25
84316;BME280;74496;52.236;5.164;2024-03-22T01:43:14;101890.59;;;12.93;74.98
84316;BME280;74496;52.236;5.164;2024-03-22T01:45:40;101893.75;;;12.86;74.97
84316;BME280;74496;52.236;5.164;2024-03-22T01:48:07;101892.81;;;12.87;75.20
84316;BME280;74496;52.236;5.164;2024-03-22T01:50:33;101901.31;;;12.70;75.65
84316;BME280;74496;52.236;5.164;2024-03-22T01:53:02;101898.38;;;12.73;75.87
84316;BME280;74496;52.236;5.164;2024-03-22T01:55:29;101883.56;;;12.82;75.21
84316;BME280;74496;52.236;5.164;2024-03-22T01:57:57;101892.75;;;12.66;75.25
84316;BME280;74496;52.236;5.164;2024-03-22T02:00:23;101890.56;;;12.72;75.55
84316;BME280;74496;52.236;5.164;2024-03-22T02:02:49;101886.94;;;12.73;75.51
84316;BME280;74496;52.236;5.164;2024-03-22T02:05:16;101893.28;;;12.60;75.95
84316;BME280;74496;52.236;5.164;2024-03-22T02:07:45;101888.66;;;12.74;75.07
84316;BME280;74496;52.236;5.164;2024-03-22T02:10:10;101878.81;;;12.64;75.90
84316;BME280;74496;52.236;5.164;2024-03-22T02:12:37;101879.66;;;12.65;75.77
84316;BME280;74496;52.236;5.164;2024-03-22T02:15:06;101885.28;;;12.72;75.42
84316;BME280;74496;52.236;5.164;2024-03-22T02:17:34;101867.16;;;12.67;75.34
84316;BME280;74496;52.236;5.164;2024-03-22T02:20:02;101873.13;;;12.69;75.29
84316;BME280;74496;52.236;5.164;2024-03-22T02:22:30;101873.13;;;12.69;75.13
84316;BME280;74496;52.236;5.164;2024-03-22T02:24:57;101873.53;;;12.53;75.80
84316;BME280;74496;52.236;5.164;2024-03-22T02:27:24;101861.88;;;12.56;75.43
84316;BME280;74496;52.236;5.164;2024-03-22T02:29:51;101850.59;;;12.54;75.75
84316;BME280;74496;52.236;5.164;2024-03-22T02:32:17;101859.81;;;12.59;75.34
84316;BME280;74496;52.236;5.164;2024-03-22T02:34:43;101855.53;;;12.47;75.92
84316;BME280;74496;52.236;5.164;2024-03-22T02:37:11;101846.66;;;12.37;75.84
84316;BME280;74496;52.236;5.164;2024-03-22T02:39:38;101846.63;;;12.48;75.85
84316;BME280;74496;52.236;5.164;2024-03-22T02:42:05;101836.41;;;12.43;75.93
84316;BME280;74496;52.236;5.164;2024-03-22T02:44:32;101828.50;;;12.32;76.35
84316;BME280;74496;52.236;5.164;2024-03-22T02:46:57;101817.78;;;12.34;76.01
84316;BME280;74496;52.236;5.164;2024-03-22T02:49:24;101809.25;;;12.41;75.74
84316;BME280;74496;52.236;5.164;2024-03-22T02:51:50;101804.84;;;12.31;76.52
84316;BME280;74496;52.236;5.164;2024-03-22T02:54:17;101806.03;;;12.27;76.38
84316;BME280;74496;52.236;5.164;2024-03-22T02:56:42;101789.56;;;12.34;76.22
84316;BME280;74496;52.236;5.164;2024-03-22T02:59:10;101785.69;;;12.38;75.98
84316;BME280;74496;52.236;5.164;2024-03-22T03:01:36;101784.09;;;12.15;77.24
84316;BME280;74496;52.236;5.164;2024-03-22T03:04:03;101780.69;;;12.24;76.66
84316;BME280;74496;52.236;5.164;2024-03-22T03:06:28;101787.34;;;12.39;75.79
84316;BME280;74496;52.236;5.164;2024-03-22T03:08:55;101786.91;;;12.34;75.94
84316;BME280;74496;52.236;5.164;2024-03-22T03:11:21;101783.44;;;12.23;76.72
84316;BME280;74496;52.236;5.164;2024-03-22T03:13:49;101772.75;;;12.24;76.48
84316;BME280;74496;52.236;5.164;2024-03-22T03:16:16;101766.94;;;12.30;76.34
84316;BME280;74496;52.236;5.164;2024-03-22T03:18:43;101759.31;;;12.16;77.02
84316;BME280;74496;52.236;5.164;2024-03-22T03:21:09;101758.41;;;12.27;76.65
84316;BME280;74496;52.236;5.164;2024-03-22T03:23:35;101749.22;;;12.42;76.30
84316;BME280;74496;52.236;5.164;2024-03-22T03:26:01;101742.50;;;12.38;75.94
84316;BME280;74496;52.236;5.164;2024-03-22T03:28:29;101738.97;;;12.28;76.48
84316;BME280;74496;52.236;5.164;2024-03-22T03:30:54;101728.56;;;12.36;76.23
84316;BME280;74496;52.236;5.164;2024-03-22T03:33:22;101727.59;;;12.37;75.94
84316;BME280;74496;52.236;5.164;2024-03-22T03:35:48;101730.22;;;12.16;76.78
84316;BME280;74496;52.236;5.164;2024-03-22T03:38:14;101727.72;;;12.14;76.79
84316;BME280;74496;52.236;5.164;2024-03-22T03:40:40;101726.97;;;12.12;76.77
84316;BME280;74496;52.236;5.164;2024-03-22T03:43:07;101730.44;;;12.24;76.18
84316;BME280;74496;52.236;5.164;2024-03-22T03:45:36;101722.16;;;12.17;76.62
84316;BME280;74496;52.236;5.164;2024-03-22T03:48:03;101729.91;;;12.30;75.90
84316;BME280;74496;52.236;5.164;2024-03-22T03:50:30;101721.81;;;12.11;76.88
84316;BME280;74496;52.236;5.164;2024-03-22T03:52:57;101725.16;;;12.13;76.64
84316;BME280;74496;52.236;5.164;2024-03-22T03:55:22;101727.63;;;11.93;77.47
84316;BME280;74496;52.236;5.164;2024-03-22T03:57:49;101718.78;;;12.15;76.66
84316;BME280;74496;52.236;5.164;2024-03-22T04:00:15;101725.81;;;11.94;77.28
84316;BME280;74496;52.236;5.164;2024-03-22T04:02:42;101721.56;;;12.14;76.60
84316;BME280;74496;52.236;5.164;2024-03-22T04:05:08;101722.59;;;12.23;75.77
84316;BME280;74496;52.236;5.164;2024-03-22T04:07:36;101723.03;;;12.07;76.75
84316;BME280;74496;52.236;5.164;2024-03-22T04:10:01;101716.16;;;12.15;76.18
84316;BME280;74496;52.236;5.164;2024-03-22T04:12:28;101710.03;;;12.15;76.40
84316;BME280;74496;52.236;5.164;2024-03-22T04:14:54;101712.84;;;12.02;76.93
84316;BME280;74496;52.236;5.164;2024-03-22T04:17:21;101706.22;;;12.08;76.73
84316;BME280;74496;52.236;5.164;2024-03-22T04:19:49;101718.31;;;12.10;76.78
84316;BME280;74496;52.236;5.164;2024-03-22T04:22:15;101716.25;;;12.14;76.36
84316;BME280;74496;52.236;5.164;2024-03-22T04:24:42;101721.22;;;12.07;76.82
84316;BME280;74496;52.236;5.164;2024-03-22T04:27:09;101718.53;;;12.18;76.50
84316;BME280;74496;52.236;5.164;2024-03-22T04:29:35;101716.94;;;11.95;77.48
84316;BME280;74496;52.236;5.164;2024-03-22T04:32:01;101714.91;;;11.99;77.15
84316;BME280;74496;52.236;5.164;2024-03-22T04:34:27;101719.78;;;12.03;77.08
84316;BME280;74496;52.236;5.164;2024-03-22T04:36:54;101711.22;;;12.11;76.50
84316;BME280;74496;52.236;5.164;2024-03-22T04:39:22;101709.50;;;11.89;77.26
84316;BME280;74496;52.236;5.164;2024-03-22T04:41:51;101703.69;;;12.06;76.48
84316;BME280;74496;52.236;5.164;2024-03-22T04:44:17;101715.00;;;11.97;76.86
84316;BME280;74496;52.236;5.164;2024-03-22T04:46:43;101720.88;;;12.01;77.20
84316;BME280;74496;52.236;5.164;2024-03-22T04:49:10;101712.94;;;12.01;76.77
84316;BME280;74496;52.236;5.164;2024-03-22T04:51:35;101717.00;;;12.16;76.38
84316;BME280;74496;52.236;5.164;2024-03-22T04:54:02;101717.66;;;12.29;75.53
84316;BME280;74496;52.236;5.164;2024-03-22T04:56:28;101706.25;;;11.96;76.64
84316;BME280;74496;52.236;5.164;2024-03-22T04:58:56;101713.66;;;12.03;76.24
84316;BME280;74496;52.236;5.164;2024-03-22T05:01:21;101713.28;;;12.07;76.16
84316;BME280;74496;52.236;5.164;2024-03-22T05:03:49;101714.16;;;12.08;76.13
84316;BME280;74496;52.236;5.164;2024-03-22T05:06:15;101716.78;;;12.08;76.00
84316;BME280;74496;52.236;5.164;2024-03-22T05:08:41;101708.13;;;12.06;75.56
84316;BME280;74496;52.236;5.164;2024-03-22T05:11:07;101712.41;;;12.18;75.28
84316;BME280;74496;52.236;5.164;2024-03-22T05:13:34;101710.81;;;11.94;75.87
84316;BME280;74496;52.236;5.164;2024-03-22T05:16:01;101708.47;;;12.12;75.00
84316;BME280;74496;52.236;5.164;2024-03-22T05:18:27;101698.19;;;11.98;75.50
84316;BME280;74496;52.236;5.164;2024-03-22T05:20:54;101707.88;;;12.09;75.18
84316;BME280;74496;52.236;5.164;2024-03-22T05:23:20;101694.97;;;11.94;75.66
84316;BME280;74496;52.236;5.164;2024-03-22T05:25:46;101697.00;;;11.80;76.15
84316;BME280;74496;52.236;5.164;2024-03-22T05:28:13;101691.59;;;11.92;75.83
84316;BME280;74496;52.236;5.164;2024-03-22T05:30:38;101692.81;;;11.88;75.52
84316;BME280;74496;52.236;5.164;2024-03-22T05:33:06;101691.00;;;11.78;76.42
84316;BME280;74496;52.236;5.164;2024-03-22T05:35:32;101687.53;;;11.88;75.77
84316;BME280;74496;52.236;5.164;2024-03-22T05:37:59;101673.59;;;11.86;75.71
84316;BME280;74496;52.236;5.164;2024-03-22T05:40:24;101676.44;;;11.83;75.80
84316;BME280;74496;52.236;5.164;2024-03-22T05:42:51;101679.59;;;11.77;75.96
84316;BME280;74496;52.236;5.164;2024-03-22T05:45:17;101669.84;;;11.78;76.02
84316;BME280;74496;52.236;5.164;2024-03-22T05:47:43;101670.56;;;11.80;75.97
84316;BME280;74496;52.236;5.164;2024-03-22T05:50:10;101676.25;;;11.75;76.22
84316;BME280;74496;52.236;5.164;2024-03-22T05:52:37;101674.31;;;11.77;75.88
84316;BME280;74496;52.236;5.164;2024-03-22T05:55:03;101672.03;;;11.72;76.30
84316;BME280;74496;52.236;5.164;2024-03-22T05:57:30;101670.97;;;11.64;76.79
84316;BME280;74496;52.236;5.164;2024-03-22T05:59:56;101668.06;;;11.78;76.13
84316;BME280;74496;52.236;5.164;2024-03-22T06:02:23;101656.81;;;11.65;76.33
84316;BME280;74496;52.236;5.164;2024-03-22T06:04:48;101655.59;;;11.58;76.67
84316;BME280;74496;52.236;5.164;2024-03-22T06:07:16;101664.47;;;11.68;76.20
84316;BME280;74496;52.236;5.164;2024-03-22T06:09:43;101663.38;;;11.70;76.48
84316;BME280;74496;52.236;5.164;2024-03-22T06:12:12;101660.88;;;11.69;76.58
84316;BME280;74496;52.236;5.164;2024-03-22T06:14:38;101659.88;;;11.81;75.91
84316;BME280;74496;52.236;5.164;2024-03-22T06:17:05;101663.03;;;11.75;76.35
84316;BME280;74496;52.236;5.164;2024-03-22T06:19:31;101662.28;;;11.84;75.88
84316;BME280;74496;52.236;5.164;2024-03-22T06:21:57;101653.03;;;11.79;76.19
84316;BME280;74496;52.236;5.164;2024-03-22T06:24:24;101653.63;;;11.82;76.10
84316;BME280;74496;52.236;5.164;2024-03-22T06:26:51;101647.75;;;11.79;76.43
84316;BME280;74496;52.236;5.164;2024-03-22T06:29:17;101655.44;;;11.82;76.17
84316;BME280;74496;52.236;5.164;2024-03-22T06:31:43;101659.75;;;11.83;75.56
84316;BME280;74496;52.236;5.164;2024-03-22T06:34:09;101657.00;;;11.84;75.67
84316;BME280;74496;52.236;5.164;2024-03-22T06:36:36;101661.75;;;12.02;75.05
84316;BME280;74496;52.236;5.164;2024-03-22T06:39:02;101656.72;;;11.99;75.17
84316;BME280;74496;52.236;5.164;2024-03-22T06:41:34;101657.16;;;12.04;74.97
84316;BME280;74496;52.236;5.164;2024-03-22T06:43:59;101667.31;;;11.99;75.26
84316;BME280;74496;52.236;5.164;2024-03-22T06:46:26;101655.16;;;11.96;74.91
84316;BME280;74496;52.236;5.164;2024-03-22T06:48:52;101656.00;;;11.96;75.18
84316;BME280;74496;52.236;5.164;2024-03-22T06:51:20;101667.72;;;12.15;74.40
84316;BME280;74496;52.236;5.164;2024-03-22T06:53:45;101660.78;;;12.03;74.79
84316;BME280;74496;52.236;5.164;2024-03-22T06:56:13;101666.88;;;12.14;74.52
84316;BME280;74496;52.236;5.164;2024-03-22T06:58:40;101660.47;;;12.17;74.23
84316;BME280;74496;52.236;5.164;2024-03-22T07:01:07;101662.41;;;12.15;74.07
84316;BME280;74496;52.236;5.164;2024-03-22T07:03:32;101660.63;;;12.15;74.08
84316;BME280;74496;52.236;5.164;2024-03-22T07:05:59;101667.00;;;12.13;74.31
84316;BME280;74496;52.236;5.164;2024-03-22T07:08:26;101658.94;;;12.14;74.74
84316;BME280;74496;52.236;5.164;2024-03-22T07:10:53;101661.34;;;12.17;74.38
84316;BME280;74496;52.236;5.164;2024-03-22T07:13:20;101649.44;;;12.12;74.74
84316;BME280;74496;52.236;5.164;2024-03-22T07:15:48;101650.47;;;12.20;74.38
84316;BME280;74496;52.236;5.164;2024-03-22T07:18:14;101651.91;;;12.25;74.05
84316;BME280;74496;52.236;5.164;2024-03-22T07:20:41;101653.19;;;12.09;74.71
84316;BME280;74496;52.236;5.164;2024-03-22T07:23:07;101664.34;;;12.13;74.54
84316;BME280;74496;52.236;5.164;2024-03-22T07:25:34;101647.50;;;12.14;74.87
84316;BME280;74496;52.236;5.164;2024-03-22T07:27:59;101665.84;;;12.27;74.38
84316;BME280;74496;52.236;5.164;2024-03-22T07:30:26;101662.00;;;12.31;73.91
84316;BME280;74496;52.236;5.164;2024-03-22T07:32:53;101660.88;;;12.12;74.72
84316;BME280;74496;52.236;5.164;2024-03-22T07:35:20;101662.94;;;12.30;74.52
84316;BME280;74496;52.236;5.164;2024-03-22T07:37:45;101659.00;;;12.24;74.65
84316;BME280;74496;52.236;5.164;2024-03-22T07:40:12;101654.41;;;12.26;74.52
84316;BME280;74496;52.236;5.164;2024-03-22T07:42:38;101662.53;;;12.13;75.44
84316;BME280;74496;52.236;5.164;2024-03-22T07:45:05;101665.50;;;12.20;75.21
84316;BME280;74496;52.236;5.164;2024-03-22T07:47:30;101665.91;;;12.15;75.48
84316;BME280;74496;52.236;5.164;2024-03-22T07:49:59;101659.31;;;12.10;75.69
84316;BME280;74496;52.236;5.164;2024-03-22T07:52:24;101660.09;;;12.22;75.37
84316;BME280;74496;52.236;5.164;2024-03-22T07:54:51;101656.38;;;12.24;75.03
84316;BME280;74496;52.236;5.164;2024-03-22T07:57:17;101658.97;;;12.03;75.74
84316;BME280;74496;52.236;5.164;2024-03-22T07:59:44;101647.47;;;12.25;75.05
84316;BME280;74496;52.236;5.164;2024-03-22T08:02:10;101662.34;;;12.05;76.03
84316;BME280;74496;52.236;5.164;2024-03-22T08:04:37;101660.72;;;11.93;76.75
84316;BME280;74496;52.236;5.164;2024-03-22T08:07:04;101664.56;;;11.89;76.55
84316;BME280;74496;52.236;5.164;2024-03-22T08:09:31;101659.41;;;11.76;77.42
84316;BME280;74496;52.236;5.164;2024-03-22T08:11:56;101648.56;;;11.90;76.92
84316;BME280;74496;52.236;5.164;2024-03-22T08:14:23;101650.78;;;12.06;76.19
84316;BME280;74496;52.236;5.164;2024-03-22T08:16:49;101656.41;;;12.13;75.98
84316;BME280;74496;52.236;5.164;2024-03-22T08:19:15;101655.31;;;12.15;75.81
84316;BME280;74496;52.236;5.164;2024-03-22T08:21:41;101658.47;;;12.09;76.07
84316;BME280;74496;52.236;5.164;2024-03-22T08:24:10;101660.22;;;12.20;75.54
84316;BME280;74496;52.236;5.164;2024-03-22T08:26:36;101666.66;;;12.06;76.12
84316;BME280;74496;52.236;5.164;2024-03-22T08:29:02;101659.94;;;12.02;76.32
84316;BME280;74496;52.236;5.164;2024-03-22T08:31:28;101669.31;;;12.06;76.60
84316;BME280;74496;52.236;5.164;2024-03-22T08:33:55;101649.81;;;12.07;76.62
84316;BME280;74496;52.236;5.164;2024-03-22T08:36:21;101652.38;;;11.97;77.17
84316;BME280;74496;52.236;5.164;2024-03-22T08:38:48;101651.38;;;12.10;77.10
84316;BME280;74496;52.236;5.164;2024-03-22T08:41:15;101649.97;;;12.06;77.38
84316;BME280;74496;52.236;5.164;2024-03-22T08:43:42;101652.44;;;11.86;78.84
84316;BME280;74496;52.236;5.164;2024-03-22T08:46:08;101654.53;;;12.04;78.02
84316;BME280;74496;52.236;5.164;2024-03-22T08:48:36;101653.25;;;11.98;78.53
84316;BME280;74496;52.236;5.164;2024-03-22T08:51:01;101642.84;;;12.06;78.29
84316;BME280;74496;52.236;5.164;2024-03-22T08:53:28;101642.19;;;11.93;78.57
84316;BME280;74496;52.236;5.164;2024-03-22T08:55:54;101639.56;;;11.93;78.93
84316;BME280;74496;52.236;5.164;2024-03-22T08:58:22;101641.88;;;12.07;78.22
84316;BME280;74496;52.236;5.164;2024-03-22T09:00:47;101640.34;;;12.05;78.58
84316;BME280;74496;52.236;5.164;2024-03-22T09:03:14;101647.31;;;12.06;79.12
84316;BME280;74496;52.236;5.164;2024-03-22T09:05:40;101638.97;;;12.10;78.63
84316;BME280;74496;52.236;5.164;2024-03-22T09:08:06;101642.75;;;12.08;78.91
84316;BME280;74496;52.236;5.164;2024-03-22T09:10:32;101645.97;;;12.11;78.66
84316;BME280;74496;52.236;5.164;2024-03-22T09:12:59;101641.69;;;11.99;79.25
84316;BME280;74496;52.236;5.164;2024-03-22T09:15:26;101642.75;;;12.08;79.36
84316;BME280;74496;52.236;5.164;2024-03-22T09:17:52;101640.44;;;12.14;79.12
84316;BME280;74496;52.236;5.164;2024-03-22T09:20:18;101644.09;;;12.02;79.08
84316;BME280;74496;52.236;5.164;2024-03-22T09:22:45;101650.59;;;11.98;79.53
84316;BME280;74496;52.236;5.164;2024-03-22T09:25:11;101647.56;;;12.03;79.38
84316;BME280;74496;52.236;5.164;2024-03-22T09:27:38;101642.53;;;12.00;79.65
84316;BME280;74496;52.236;5.164;2024-03-22T09:30:05;101640.78;;;11.89;80.03
84316;BME280;74496;52.236;5.164;2024-03-22T09:32:33;101639.56;;;11.93;80.20
84316;BME280;74496;52.236;5.164;2024-03-22T09:34:59;101628.41;;;11.89;79.27
84316;BME280;74496;52.236;5.164;2024-03-22T09:37:26;101630.28;;;11.99;79.60
84316;BME280;74496;52.236;5.164;2024-03-22T09:39:52;101632.72;;;11.90;80.26
84316;BME280;74496;52.236;5.164;2024-03-22T09:42:22;101634.34;;;12.03;79.76
84316;BME280;74496;52.236;5.164;2024-03-22T09:44:49;101634.69;;;12.09;79.65
84316;BME280;74496;52.236;5.164;2024-03-22T09:47:16;101627.56;;;12.10;79.51
84316;BME280;74496;52.236;5.164;2024-03-22T09:49:44;101634.19;;;12.04;80.31
84316;BME280;74496;52.236;5.164;2024-03-22T09:52:14;101629.97;;;11.92;80.08
84316;BME280;74496;52.236;5.164;2024-03-22T09:54:41;101635.94;;;11.94;80.50
84316;BME280;74496;52.236;5.164;2024-03-22T09:57:09;101631.22;;;11.97;80.41
84316;BME280;74496;52.236;5.164;2024-03-22T09:59:37;101632.94;;;11.99;80.80
84316;BME280;74496;52.236;5.164;2024-03-22T10:02:04;101626.47;;;11.80;81.21
84316;BME280;74496;52.236;5.164;2024-03-22T10:04:32;101621.59;;;12.08;79.79
84316;BME280;74496;52.236;5.164;2024-03-22T10:07:03;101622.09;;;12.02;80.44
84316;BME280;74496;52.236;5.164;2024-03-22T10:09:29;101624.34;;;12.06;80.24
84316;BME280;74496;52.236;5.164;2024-03-22T10:11:56;101625.66;;;12.12;80.43
84316;BME280;74496;52.236;5.164;2024-03-22T10:14:22;101622.28;;;12.10;80.42
84316;BME280;74496;52.236;5.164;2024-03-22T10:16:51;101611.13;;;12.06;79.83
84316;BME280;74496;52.236;5.164;2024-03-22T10:19:18;101624.16;;;11.98;81.01
84316;BME280;74496;52.236;5.164;2024-03-22T10:21:45;101620.88;;;12.06;81.06
84316;BME280;74496;52.236;5.164;2024-03-22T10:24:13;101614.81;;;12.15;80.40
84316;BME280;74496;52.236;5.164;2024-03-22T10:26:40;101613.84;;;12.16;79.89
84316;BME280;74496;52.236;5.164;2024-03-22T10:29:11;101619.28;;;12.14;80.83
84316;BME280;74496;52.236;5.164;2024-03-22T10:31:38;101620.78;;;12.17;80.54
84316;BME280;74496;52.236;5.164;2024-03-22T10:34:05;101622.34;;;12.19;79.46
84316;BME280;74496;52.236;5.164;2024-03-22T10:36:34;101625.78;;;12.31;79.62
84316;BME280;74496;52.236;5.164;2024-03-22T10:39:02;101628.66;;;12.07;80.48
84316;BME280;74496;52.236;5.164;2024-03-22T10:41:31;101624.03;;;12.20;80.35
84316;BME280;74496;52.236;5.164;2024-03-22T10:43:57;101618.88;;;12.19;80.22
84316;BME280;74496;52.236;5.164;2024-03-22T10:46:29;101617.53;;;12.25;80.20
84316;BME280;74496;52.236;5.164;2024-03-22T10:48:55;101613.25;;;12.33;79.34
84316;BME280;74496;52.236;5.164;2024-03-22T10:51:22;101621.19;;;12.12;80.84
84316;BME280;74496;52.236;5.164;2024-03-22T10:53:49;101614.22;;;12.32;80.16
84316;BME280;74496;52.236;5.164;2024-03-22T10:56:18;101618.16;;;12.38;79.83
84316;BME280;74496;52.236;5.164;2024-03-22T10:58:45;101627.66;;;12.40;79.92
84316;BME280;74496;52.236;5.164;2024-03-22T11:01:24;101618.03;;;12.39;80.14
84316;BME280;74496;52.236;5.164;2024-03-22T11:03:51;101617.34;;;12.37;80.35
84316;BME280;74496;52.236;5.164;2024-03-22T11:06:19;101610.53;;;12.44;79.30
84316;BME280;74496;52.236;5.164;2024-03-22T11:08:49;101616.69;;;12.45;79.48
84316;BME280;74496;52.236;5.164;2024-03-22T11:11:17;101613.56;;;12.40;80.10
84316;BME280;74496;52.236;5.164;2024-03-22T11:13:43;101605.38;;;12.43;79.58
84316;BME280;74496;52.236;5.164;2024-03-22T11:16:14;101611.38;;;12.45;79.84
84316;BME280;74496;52.236;5.164;2024-03-22T11:18:40;101613.25;;;12.33;80.31
84316;BME280;74496;52.236;5.164;2024-03-22T11:21:07;101601.22;;;12.50;79.71
84316;BME280;74496;52.236;5.164;2024-03-22T11:23:34;101600.44;;;12.59;78.74
84316;BME280;74496;52.236;5.164;2024-03-22T11:26:02;101602.09;;;12.51;79.67
84316;BME280;74496;52.236;5.164;2024-03-22T11:28:28;101604.31;;;12.55;79.74
84316;BME280;74496;52.236;5.164;2024-03-22T11:30:55;101606.81;;;12.57;79.25
84316;BME280;74496;52.236;5.164;2024-03-22T11:33:22;101600.69;;;12.56;79.27
84316;BME280;74496;52.236;5.164;2024-03-22T11:35:49;101592.75;;;12.56;79.52
84316;BME280;74496;52.236;5.164;2024-03-22T11:38:15;101586.25;;;12.60;79.39
84316;BME280;74496;52.236;5.164;2024-03-22T11:40:43;101583.72;;;12.59;79.61
84316;BME280;74496;52.236;5.164;2024-03-22T11:43:10;101583.47;;;12.62;79.83
84316;BME280;74496;52.236;5.164;2024-03-22T11:45:39;101581.91;;;12.59;80.30
84316;BME280;74496;52.236;5.164;2024-03-22T11:48:06;101585.13;;;12.63;79.84
84316;BME280;74496;52.236;5.164;2024-03-22T11:50:35;101589.22;;;12.67;79.33
84316;BME280;74496;52.236;5.164;2024-03-22T11:53:01;101577.50;;;12.70;78.70
84316;BME280;74496;52.236;5.164;2024-03-22T11:55:29;101576.66;;;12.69;79.27
84316;BME280;74496;52.236;5.164;2024-03-22T11:57:57;101587.41;;;12.67;79.41
84316;BME280;74496;52.236;5.164;2024-03-22T12:00:24;101577.53;;;12.79;78.74
84316;BME280;74496;52.236;5.164;2024-03-22T12:02:50;101586.25;;;12.60;79.18
84316;BME280;74496;52.236;5.164;2024-03-22T12:05:17;101580.97;;;12.60;78.98
84316;BME280;74496;52.236;5.164;2024-03-22T12:07:45;101579.69;;;12.55;79.47
84316;BME280;74496;52.236;5.164;2024-03-22T12:10:12;101571.53;;;12.47;79.55
84316;BME280;74496;52.236;5.164;2024-03-22T12:12:39;101571.28;;;12.50;79.29
84316;BME280;74496;52.236;5.164;2024-03-22T12:15:06;101571.69;;;12.45;79.85
84316;BME280;74496;52.236;5.164;2024-03-22T12:17:32;101569.88;;;12.46;79.70
84316;BME280;74496;52.236;5.164;2024-03-22T12:20:01;101563.88;;;12.43;80.44
84316;BME280;74496;52.236;5.164;2024-03-22T12:22:29;101564.91;;;12.52;79.84
84316;BME280;74496;52.236;5.164;2024-03-22T12:24:56;101565.72;;;12.53;79.75
84316;BME280;74496;52.236;5.164;2024-03-22T12:27:24;101560.47;;;12.62;79.28
84316;BME280;74496;52.236;5.164;2024-03-22T12:29:50;101566.75;;;12.61;79.75
84316;BME280;74496;52.236;5.164;2024-03-22T12:32:16;101564.06;;;12.52;79.79
84316;BME280;74496;52.236;5.164;2024-03-22T12:34:42;101555.38;;;12.71;79.28
84316;BME280;74496;52.236;5.164;2024-03-22T12:37:09;101563.00;;;12.64;79.56
84316;BME280;74496;52.236;5.164;2024-03-22T12:39:35;101557.19;;;12.70;78.21
84316;BME280;74496;52.236;5.164;2024-03-22T12:42:04;101555.78;;;12.76;78.36
84316;BME280;74496;52.236;5.164;2024-03-22T12:44:31;101554.53;;;12.80;78.84
84316;BME280;74496;52.236;5.164;2024-03-22T12:46:57;101536.59;;;12.93;77.43